BAW64 HKJK-EGLL
Flight info
| Callsign | BAW64 |
|---|---|
| Flight time | N/A |
| Altitude | 35000 |
| Route | ETORU1A KAMAS UN554 RUDOL UM308 OKNET/N0495F370 UM308 KONET UG650 ULONI G650 RASKA/N0493F380 T513 EGMEG/N0493F370 G660 JDW/N0492F380 L677 CVO L617 TANSA UL613 KOR/N0491F400 UL613 YNN UL611 TUMBO DCT OVVER DCT RODON DCT VAKSU DCT SPL DCT ROTAR DCT SUXAN DCT RONAG DCT ELMUR DCT RIPUS DCT DITON DCT HOC DCT LUL DCT RLP DCT ROTSI DCT KOTUN DCT NINAL DCT ABNUR DCT DIMAL DCT ALESO ALESO1H |
| Aircraft | A35K/H-SBDE1E2E3GHIJ1J3J4J5J6M1M2P2RWXYZ/LB1D1 |
Departure
| Time | N/A |
|---|---|
| Airport | Jomo Kenyatta International Airport (HKJK) |
Arrival
| Time | 2026-05-04 05:13 |
|---|---|
| Airport | London Heathrow Airport (EGLL) |
| Time | Latitude | Longitude | Altitude | Speed | Heading |
|---|---|---|---|---|---|
| 2026-05-04 04:23 | 47.75129 | 6.00692 | 40023 ft | 471 kts | 286° |
| 2026-05-04 04:23 | 47.76122 | 5.96051 | 40024 ft | 471 kts | 285° |
| 2026-05-04 04:24 | 47.78076 | 5.86766 | 40027 ft | 470 kts | 285° |
| 2026-05-04 04:24 | 47.79681 | 5.79059 | 40023 ft | 469 kts | 285° |
| 2026-05-04 04:25 | 47.81672 | 5.69814 | 40019 ft | 469 kts | 288° |
| 2026-05-04 04:25 | 47.83704 | 5.60572 | 40024 ft | 470 kts | 287° |
| 2026-05-04 04:26 | 47.85664 | 5.51294 | 40018 ft | 470 kts | 287° |
| 2026-05-04 04:26 | 47.87574 | 5.42005 | 40018 ft | 469 kts | 287° |
| 2026-05-04 04:27 | 47.89473 | 5.32702 | 40023 ft | 469 kts | 287° |
| 2026-05-04 04:27 | 47.92200 | 5.23887 | 40015 ft | 472 kts | 303° |
| 2026-05-04 04:28 | 47.96340 | 5.16224 | 40007 ft | 478 kts | 310° |
| 2026-05-04 04:28 | 48.00830 | 5.08845 | 40016 ft | 481 kts | 311° |
| 2026-05-04 04:29 | 48.05364 | 5.01476 | 40006 ft | 483 kts | 314° |
| 2026-05-04 04:29 | 48.09982 | 4.94164 | 40002 ft | 484 kts | 313° |
| 2026-05-04 04:30 | 48.14525 | 4.86726 | 40007 ft | 484 kts | 312° |
| 2026-05-04 04:30 | 48.19020 | 4.79205 | 40006 ft | 485 kts | 312° |
| 2026-05-04 04:31 | 48.23479 | 4.71719 | 39993 ft | 485 kts | 312° |
| 2026-05-04 04:31 | 48.27975 | 4.64168 | 39993 ft | 486 kts | 312° |
| 2026-05-04 04:32 | 48.32482 | 4.56599 | 39990 ft | 486 kts | 312° |
| 2026-05-04 04:32 | 48.36982 | 4.49006 | 39992 ft | 487 kts | 312° |
| 2026-05-04 04:33 | 48.41480 | 4.41400 | 39987 ft | 487 kts | 312° |
| 2026-05-04 04:33 | 48.45997 | 4.33768 | 39988 ft | 487 kts | 312° |
| 2026-05-04 04:34 | 48.50502 | 4.26117 | 39988 ft | 489 kts | 312° |
| 2026-05-04 04:34 | 48.55013 | 4.18417 | 39988 ft | 490 kts | 312° |
| 2026-05-04 04:35 | 48.59516 | 4.10708 | 39995 ft | 490 kts | 312° |
| 2026-05-04 04:35 | 48.64023 | 4.02968 | 39991 ft | 491 kts | 312° |
| 2026-05-04 04:36 | 48.68524 | 3.95222 | 39989 ft | 491 kts | 312° |
| 2026-05-04 04:36 | 48.73025 | 3.87452 | 39974 ft | 491 kts | 312° |
| 2026-05-04 04:37 | 48.82924 | 3.73195 | 39974 ft | 493 kts | 322° |
| 2026-05-04 04:38 | 48.88263 | 3.66711 | 39978 ft | 495 kts | 321° |
| 2026-05-04 04:38 | 48.93521 | 3.59953 | 39980 ft | 495 kts | 320° |
| 2026-05-04 04:39 | 48.98680 | 3.53029 | 39977 ft | 494 kts | 319° |
| 2026-05-04 04:39 | 49.03805 | 3.46058 | 39969 ft | 493 kts | 319° |
| 2026-05-04 04:40 | 49.08919 | 3.39083 | 39970 ft | 493 kts | 319° |
| 2026-05-04 04:40 | 49.13560 | 3.32750 | 39982 ft | 493 kts | 319° |
| 2026-05-04 04:41 | 49.18656 | 3.25790 | 39965 ft | 493 kts | 319° |
| 2026-05-04 04:41 | 49.23761 | 3.18794 | 39963 ft | 493 kts | 319° |
| 2026-05-04 04:42 | 49.28870 | 3.11770 | 39967 ft | 494 kts | 319° |
| 2026-05-04 04:42 | 49.33978 | 3.04728 | 39969 ft | 494 kts | 319° |
| 2026-05-04 04:43 | 49.39079 | 2.97676 | 39961 ft | 494 kts | 319° |
| 2026-05-04 04:43 | 49.44181 | 2.90603 | 39962 ft | 494 kts | 319° |
| 2026-05-04 04:44 | 49.49275 | 2.83517 | 39970 ft | 494 kts | 319° |
| 2026-05-04 04:44 | 49.54360 | 2.76421 | 39960 ft | 494 kts | 319° |
| 2026-05-04 04:45 | 49.59446 | 2.69306 | 39973 ft | 494 kts | 319° |
| 2026-05-04 04:47 | 49.77168 | 2.44354 | 39960 ft | 494 kts | 319° |
| 2026-05-04 04:47 | 49.82233 | 2.37175 | 39960 ft | 494 kts | 319° |
| 2026-05-04 04:48 | 49.87304 | 2.29972 | 39960 ft | 495 kts | 319° |
| 2026-05-04 04:49 | 49.99943 | 2.11899 | 39953 ft | 494 kts | 319° |
| 2026-05-04 04:49 | 50.04992 | 2.04639 | 39967 ft | 494 kts | 319° |
| 2026-05-04 04:50 | 50.10037 | 1.97368 | 39967 ft | 494 kts | 319° |
| 2026-05-04 04:50 | 50.15044 | 1.90131 | 39973 ft | 494 kts | 318° |
| 2026-05-04 04:51 | 50.20068 | 1.82814 | 39907 ft | 492 kts | 318° |
| 2026-05-04 04:51 | 50.22527 | 1.79120 | 39288 ft | 490 kts | 317° |
| 2026-05-04 04:51 | 50.24961 | 1.75389 | 38562 ft | 491 kts | 316° |
| 2026-05-04 04:52 | 50.27392 | 1.71644 | 37795 ft | 489 kts | 316° |
| 2026-05-04 04:52 | 50.29810 | 1.67930 | 37139 ft | 486 kts | 315° |
| 2026-05-04 04:52 | 50.32221 | 1.64239 | 36475 ft | 483 kts | 315° |
| 2026-05-04 04:52 | 50.34616 | 1.60582 | 35814 ft | 480 kts | 314° |
| 2026-05-04 04:53 | 50.37008 | 1.56936 | 35127 ft | 479 kts | 314° |
| 2026-05-04 04:53 | 50.39397 | 1.53296 | 34395 ft | 479 kts | 313° |
| 2026-05-04 04:53 | 50.41785 | 1.49657 | 33568 ft | 479 kts | 313° |
| 2026-05-04 04:53 | 50.44165 | 1.46013 | 32726 ft | 479 kts | 312° |
| 2026-05-04 04:54 | 50.46539 | 1.42360 | 31914 ft | 477 kts | 312° |
| 2026-05-04 04:54 | 50.48910 | 1.38699 | 31108 ft | 477 kts | 311° |
| 2026-05-04 04:54 | 50.51244 | 1.34994 | 30434 ft | 476 kts | 308° |
| 2026-05-04 04:54 | 50.53415 | 1.31084 | 29815 ft | 475 kts | 306° |
| 2026-05-04 04:55 | 50.55565 | 1.27185 | 29188 ft | 469 kts | 307° |
| 2026-05-04 04:55 | 50.57717 | 1.23374 | 28595 ft | 463 kts | 308° |
| 2026-05-04 04:55 | 50.59899 | 1.19672 | 28013 ft | 459 kts | 311° |
| 2026-05-04 04:55 | 50.62139 | 1.16126 | 27423 ft | 453 kts | 312° |
| 2026-05-04 04:56 | 50.64360 | 1.12642 | 26866 ft | 447 kts | 312° |
| 2026-05-04 04:56 | 50.66545 | 1.09207 | 26304 ft | 441 kts | 312° |
| 2026-05-04 04:56 | 50.68696 | 1.05810 | 25725 ft | 435 kts | 312° |
| 2026-05-04 04:56 | 50.70814 | 1.02454 | 25197 ft | 429 kts | 313° |
| 2026-05-04 04:57 | 50.72907 | 0.99130 | 24652 ft | 425 kts | 313° |
| 2026-05-04 04:57 | 50.74956 | 0.95868 | 24110 ft | 422 kts | 313° |
| 2026-05-04 04:57 | 50.77011 | 0.92532 | 23583 ft | 416 kts | 310° |
| 2026-05-04 04:57 | 50.78975 | 0.89283 | 22965 ft | 411 kts | 311° |
| 2026-05-04 04:58 | 50.80950 | 0.86057 | 22433 ft | 406 kts | 312° |
| 2026-05-04 04:58 | 50.82917 | 0.82871 | 21904 ft | 405 kts | 312° |
| 2026-05-04 04:58 | 50.84889 | 0.79690 | 21363 ft | 404 kts | 312° |
| 2026-05-04 04:58 | 50.86852 | 0.76535 | 20834 ft | 401 kts | 313° |
| 2026-05-04 04:59 | 50.88806 | 0.73396 | 20294 ft | 399 kts | 313° |
| 2026-05-04 04:59 | 50.90744 | 0.70274 | 19758 ft | 396 kts | 313° |
| 2026-05-04 04:59 | 50.92673 | 0.67165 | 19216 ft | 394 kts | 313° |
| 2026-05-04 04:59 | 50.94584 | 0.64083 | 18664 ft | 391 kts | 313° |
| 2026-05-04 05:00 | 50.96487 | 0.61010 | 18103 ft | 389 kts | 314° |
| 2026-05-04 05:00 | 50.98387 | 0.57946 | 17507 ft | 395 kts | 314° |
| 2026-05-04 05:00 | 51.02295 | 0.51601 | 16276 ft | 402 kts | 313° |
| 2026-05-04 05:01 | 51.04240 | 0.48432 | 15661 ft | 398 kts | 314° |
| 2026-05-04 05:01 | 51.06166 | 0.45297 | 15057 ft | 395 kts | 314° |
| 2026-05-04 05:01 | 51.08091 | 0.42198 | 14455 ft | 392 kts | 315° |
| 2026-05-04 05:01 | 51.10050 | 0.39209 | 13857 ft | 389 kts | 316° |
| 2026-05-04 05:02 | 51.12008 | 0.36255 | 13229 ft | 386 kts | 316° |
| 2026-05-04 05:02 | 51.13928 | 0.33344 | 12866 ft | 374 kts | 316° |
| 2026-05-04 05:02 | 51.15771 | 0.30549 | 12582 ft | 359 kts | 316° |
| 2026-05-04 05:02 | 51.17523 | 0.27894 | 12313 ft | 345 kts | 316° |
| 2026-05-04 05:03 | 51.19227 | 0.25305 | 12067 ft | 332 kts | 316° |
| 2026-05-04 05:03 | 51.20887 | 0.22780 | 11810 ft | 319 kts | 316° |
| 2026-05-04 05:04 | 51.25381 | 0.15852 | 10724 ft | 297 kts | 316° |
| 2026-05-04 05:04 | 51.26852 | 0.13578 | 9940 ft | 293 kts | 316° |
| 2026-05-04 05:04 | 51.28305 | 0.11323 | 9040 ft | 290 kts | 316° |
| 2026-05-04 05:06 | 51.37524 | -0.02261 | 5827 ft | 242 kts | 321° |
| 2026-05-04 05:06 | 51.38810 | -0.04004 | 5210 ft | 239 kts | 321° |
| 2026-05-04 05:06 | 51.40059 | -0.05708 | 4719 ft | 231 kts | 321° |
| 2026-05-04 05:07 | 51.41286 | -0.07389 | 4347 ft | 234 kts | 321° |
| 2026-05-04 05:07 | 51.42516 | -0.09065 | 4005 ft | 232 kts | 321° |
| 2026-05-04 05:07 | 51.43707 | -0.10693 | 3739 ft | 225 kts | 321° |
| 2026-05-04 05:09 | 51.46560 | -0.26111 | 2255 ft | 185 kts | 273° |
| 2026-05-04 05:09 | 51.46553 | -0.28125 | 1996 ft | 174 kts | 274° |
| 2026-05-04 05:10 | 51.46550 | -0.29990 | 1760 ft | 161 kts | 274° |
| 2026-05-04 05:10 | 51.46543 | -0.31715 | 1541 ft | 150 kts | 273° |
| 2026-05-04 05:10 | 51.46536 | -0.33297 | 1349 ft | 140 kts | 273° |
| 2026-05-04 05:10 | 51.46530 | -0.34832 | 1171 ft | 137 kts | 273° |
| 2026-05-04 05:11 | 51.46523 | -0.36351 | 991 ft | 137 kts | 271° |
| 2026-05-04 05:11 | 51.46517 | -0.37886 | 796 ft | 138 kts | 272° |
| 2026-05-04 05:11 | 51.46511 | -0.39420 | 613 ft | 137 kts | 271° |
| 2026-05-04 05:11 | 51.46501 | -0.40962 | 427 ft | 136 kts | 272° |
| 2026-05-04 05:12 | 51.46497 | -0.42488 | 252 ft | 137 kts | 272° |
| 2026-05-04 05:12 | 51.46492 | -0.43993 | 100 ft | 136 kts | 272° |
| 2026-05-04 05:12 | 51.46489 | -0.45283 | 95 ft | 91 kts | 270° |
| 2026-05-04 05:12 | 51.46487 | -0.46129 | 96 ft | 51 kts | 269° |
| 2026-05-04 05:13 | 51.46505 | -0.46565 | 99 ft | 35 kts | 284° |
| 2026-05-04 05:13 | 51.46551 | -0.46763 | 97 ft | 21 kts | 294° |
| 2026-05-04 05:13 | 51.46611 | -0.46857 | 96 ft | 12 kts | 351° |
| 2026-05-04 05:13 | 51.46704 | -0.46860 | 96 ft | 13 kts | 0° |
| 2026-05-04 05:14 | 51.46744 | -0.46908 | 95 ft | 8 kts | 282° |
| 2026-05-04 05:14 | 51.46747 | -0.47020 | 92 ft | 12 kts | 269° |
| 2026-05-04 05:14 | 51.46746 | -0.47173 | 96 ft | 15 kts | 270° |
| 2026-05-04 05:14 | 51.46745 | -0.47364 | 92 ft | 19 kts | 268° |
| 2026-05-04 05:15 | 51.46745 | -0.47596 | 95 ft | 22 kts | 269° |
| 2026-05-04 05:15 | 51.46744 | -0.47836 | 94 ft | 19 kts | 270° |
| 2026-05-04 05:15 | 51.46743 | -0.48062 | 94 ft | 21 kts | 270° |
| 2026-05-04 05:15 | 51.46742 | -0.48242 | 92 ft | 12 kts | 270° |
| 2026-05-04 05:16 | 51.46760 | -0.48343 | 92 ft | 9 kts | 332° |
| 2026-05-04 05:16 | 51.46838 | -0.48355 | 92 ft | 13 kts | 358° |
| 2026-05-04 05:16 | 51.46943 | -0.48356 | 96 ft | 17 kts | 0° |
| 2026-05-04 05:16 | 51.47073 | -0.48356 | 95 ft | 20 kts | 360° |
| 2026-05-04 05:17 | 51.47207 | -0.48357 | 96 ft | 16 kts | 360° |
| 2026-05-04 05:17 | 51.47293 | -0.48358 | 95 ft | 11 kts | 359° |
| 2026-05-04 05:17 | 51.47359 | -0.48358 | 96 ft | 4 kts | 4° |
| 2026-05-04 05:17 | 51.47377 | -0.48328 | 97 ft | 4 kts | 66° |
| 2026-05-04 05:18 | 51.47382 | -0.48258 | 95 ft | 6 kts | 91° |
| 2026-05-04 05:18 | 51.47382 | -0.48233 | 95 ft | 1 kts | 90° |
| 2026-05-04 05:18 | 51.47381 | -0.48232 | 92 ft | 0 kts | 90° |